sensor_id;sensor_type;location;lat;lon;timestamp;pressure;altitude;pressure_sealevel;temperature;humidity
24302;BME280;12421;49.732;20.078;2023-04-28T00:05:07;97325.80;;;-0.33;77.47
24302;BME280;12421;49.732;20.078;2023-04-28T00:15:10;97325.67;;;-0.55;78.89
24302;BME280;12421;49.732;20.078;2023-04-28T00:25:15;97320.30;;;-0.65;78.92
24302;BME280;12421;49.732;20.078;2023-04-28T00:35:18;97315.11;;;-0.65;78.75
24302;BME280;12421;49.732;20.078;2023-04-28T00:45:21;97316.52;;;-0.69;78.95
24302;BME280;12421;49.732;20.078;2023-04-28T00:55:25;97314.95;;;-0.74;78.48
24302;BME280;12421;49.732;20.078;2023-04-28T01:05:29;97312.96;;;-0.89;78.75
24302;BME280;12421;49.732;20.078;2023-04-28T01:15:34;97310.77;;;-0.96;79.08
24302;BME280;12421;49.732;20.078;2023-04-28T01:25:37;97312.62;;;-1.06;78.70
24302;BME280;12421;49.732;20.078;2023-04-28T01:35:40;97316.67;;;-1.17;78.62
24302;BME280;12421;49.732;20.078;2023-04-28T01:45:45;97316.94;;;-1.19;78.60
24302;BME280;12421;49.732;20.078;2023-04-28T01:55:48;97321.52;;;-1.20;78.21
24302;BME280;12421;49.732;20.078;2023-04-28T02:05:53;97326.08;;;-1.27;78.26
24302;BME280;12421;49.732;20.078;2023-04-28T02:16:00;97330.52;;;-1.36;77.99
24302;BME280;12421;49.732;20.078;2023-04-28T02:26:05;97341.56;;;-1.56;77.98
24302;BME280;12421;49.732;20.078;2023-04-28T02:36:09;97338.88;;;-1.63;78.11
24302;BME280;12421;49.732;20.078;2023-04-28T02:46:13;97341.75;;;-1.72;77.82
24302;BME280;12421;49.732;20.078;2023-04-28T02:56:17;97346.60;;;-1.75;78.35
24302;BME280;12421;49.732;20.078;2023-04-28T03:06:20;97344.26;;;-1.82;78.24
24302;BME280;12421;49.732;20.078;2023-04-28T03:16:24;97337.58;;;-1.92;78.52
24302;BME280;12421;49.732;20.078;2023-04-28T03:26:27;97339.62;;;-2.08;78.49
24302;BME280;12421;49.732;20.078;2023-04-28T03:36:30;97343.04;;;-2.17;78.35
24302;BME280;12421;49.732;20.078;2023-04-28T03:46:40;97343.00;;;-2.22;78.46
24302;BME280;12421;49.732;20.078;2023-04-28T03:56:44;97351.64;;;-2.17;78.41
24302;BME280;12421;49.732;20.078;2023-04-28T04:06:48;97356.33;;;-2.12;78.62
24302;BME280;12421;49.732;20.078;2023-04-28T04:16:52;97353.66;;;-1.95;79.01
24302;BME280;12421;49.732;20.078;2023-04-28T04:26:58;97351.23;;;-1.76;79.08
24302;BME280;12421;49.732;20.078;2023-04-28T04:37:06;97345.52;;;-1.48;79.71
24302;BME280;12421;49.732;20.078;2023-04-28T04:47:12;97340.05;;;-1.10;79.95
24302;BME280;12421;49.732;20.078;2023-04-28T04:57:16;97334.27;;;-0.56;80.39
24302;BME280;12421;49.732;20.078;2023-04-28T05:07:37;97330.46;;;0.05;80.14
24302;BME280;12421;49.732;20.078;2023-04-28T05:17:41;97328.61;;;0.55;79.26
24302;BME280;12421;49.732;20.078;2023-04-28T05:27:45;97325.80;;;1.00;79.59
24302;BME280;12421;49.732;20.078;2023-04-28T05:37:48;97323.15;;;1.59;79.39
24302;BME280;12421;49.732;20.078;2023-04-28T05:47:52;97323.67;;;2.18;78.84
24302;BME280;12421;49.732;20.078;2023-04-28T05:57:57;97321.74;;;2.62;78.38
24302;BME280;12421;49.732;20.078;2023-04-28T06:08:02;97326.41;;;3.24;77.14
24302;BME280;12421;49.732;20.078;2023-04-28T06:18:06;97319.96;;;4.27;75.95
24302;BME280;12421;49.732;20.078;2023-04-28T06:28:11;97316.74;;;5.39;74.24
24302;BME280;12421;49.732;20.078;2023-04-28T06:38:16;97299.42;;;6.68;71.18
24302;BME280;12421;49.732;20.078;2023-04-28T06:48:20;97297.92;;;8.25;69.15
24302;BME280;12421;49.732;20.078;2023-04-28T06:58:23;97288.25;;;9.97;65.53
24302;BME280;12421;49.732;20.078;2023-04-28T07:08:26;97272.88;;;11.60;60.55
24302;BME280;12421;49.732;20.078;2023-04-28T07:18:31;97262.69;;;12.92;56.85
24302;BME280;12421;49.732;20.078;2023-04-28T07:28:34;97250.42;;;13.93;54.89
24302;BME280;12421;49.732;20.078;2023-04-28T07:38:38;97242.10;;;14.49;51.78
24302;BME280;12421;49.732;20.078;2023-04-28T07:48:41;97233.75;;;14.97;50.71
24302;BME280;12421;49.732;20.078;2023-04-28T07:58:44;97229.08;;;14.93;45.72
24302;BME280;12421;49.732;20.078;2023-04-28T08:08:47;97227.31;;;14.62;44.69
24302;BME280;12421;49.732;20.078;2023-04-28T08:18:51;97221.88;;;14.18;43.05
24302;BME280;12421;49.732;20.078;2023-04-28T08:28:54;97212.24;;;14.13;42.69
24302;BME280;12421;49.732;20.078;2023-04-28T08:38:59;97206.09;;;14.21;43.05
24302;BME280;12421;49.732;20.078;2023-04-28T08:49:05;97199.78;;;14.37;42.45
24302;BME280;12421;49.732;20.078;2023-04-28T08:59:11;97193.41;;;14.69;42.19
24302;BME280;12421;49.732;20.078;2023-04-28T09:19:35;97178.70;;;14.78;40.41
24302;BME280;12421;49.732;20.078;2023-04-28T09:29:38;97175.30;;;14.64;40.18
24302;BME280;12421;49.732;20.078;2023-04-28T09:39:53;97165.65;;;14.77;40.13
24302;BME280;12421;49.732;20.078;2023-04-28T09:49:58;97152.24;;;15.18;41.25
24302;BME280;12421;49.732;20.078;2023-04-28T10:00:03;97143.14;;;15.50;40.24
24302;BME280;12421;49.732;20.078;2023-04-28T10:10:09;97138.98;;;15.59;39.28
24302;BME280;12421;49.732;20.078;2023-04-28T10:20:14;97128.95;;;15.57;37.66
24302;BME280;12421;49.732;20.078;2023-04-28T10:30:20;97116.73;;;15.64;38.35
24302;BME280;12421;49.732;20.078;2023-04-28T10:40:34;97101.91;;;15.49;36.85
24302;BME280;12421;49.732;20.078;2023-04-28T11:11:22;97057.36;;;15.67;37.84
24302;BME280;12421;49.732;20.078;2023-04-28T11:21:27;97042.59;;;15.69;37.34
24302;BME280;12421;49.732;20.078;2023-04-28T11:31:31;97030.08;;;15.49;37.32
24302;BME280;12421;49.732;20.078;2023-04-28T11:41:39;97019.66;;;15.35;38.22
24302;BME280;12421;49.732;20.078;2023-04-28T11:51:43;97014.77;;;15.52;37.99
24302;BME280;12421;49.732;20.078;2023-04-28T12:01:56;97005.72;;;15.59;37.45
24302;BME280;12421;49.732;20.078;2023-04-28T12:12:03;96977.95;;;15.65;37.58
24302;BME280;12421;49.732;20.078;2023-04-28T12:22:07;96966.43;;;15.65;37.22
24302;BME280;12421;49.732;20.078;2023-04-28T12:32:11;96949.93;;;15.55;37.73
24302;BME280;12421;49.732;20.078;2023-04-28T12:42:14;96933.67;;;15.54;36.40
24302;BME280;12421;49.732;20.078;2023-04-28T12:52:19;96924.89;;;15.58;36.31
24302;BME280;12421;49.732;20.078;2023-04-28T13:02:23;96909.92;;;15.72;36.25
24302;BME280;12421;49.732;20.078;2023-04-28T13:12:26;96899.88;;;15.98;35.98
24302;BME280;12421;49.732;20.078;2023-04-28T13:22:30;96884.03;;;16.16;36.80
24302;BME280;12421;49.732;20.078;2023-04-28T13:32:33;96876.59;;;16.32;36.31
24302;BME280;12421;49.732;20.078;2023-04-28T13:42:36;96863.73;;;16.40;35.71
24302;BME280;12421;49.732;20.078;2023-04-28T13:52:39;96842.70;;;16.44;34.90
24302;BME280;12421;49.732;20.078;2023-04-28T14:02:43;96831.95;;;16.62;34.28
24302;BME280;12421;49.732;20.078;2023-04-28T14:12:47;96817.01;;;16.54;34.45
24302;BME280;12421;49.732;20.078;2023-04-28T14:22:51;96803.48;;;16.70;35.00
24302;BME280;12421;49.732;20.078;2023-04-28T14:32:54;96795.38;;;16.88;34.91
24302;BME280;12421;49.732;20.078;2023-04-28T14:42:57;96787.75;;;16.93;33.71
24302;BME280;12421;49.732;20.078;2023-04-28T14:53:00;96785.63;;;16.88;33.12
24302;BME280;12421;49.732;20.078;2023-04-28T15:03:09;96776.11;;;16.62;33.80
24302;BME280;12421;49.732;20.078;2023-04-28T15:13:12;96770.60;;;16.58;33.53
24302;BME280;12421;49.732;20.078;2023-04-28T15:23:15;96760.83;;;16.91;34.62
24302;BME280;12421;49.732;20.078;2023-04-28T15:33:19;96755.73;;;17.34;35.32
24302;BME280;12421;49.732;20.078;2023-04-28T15:43:22;96746.38;;;17.60;35.59
24302;BME280;12421;49.732;20.078;2023-04-28T15:53:27;96751.33;;;17.93;35.03
24302;BME280;12421;49.732;20.078;2023-04-28T16:03:30;96758.69;;;17.71;33.92
24302;BME280;12421;49.732;20.078;2023-04-28T16:13:33;96756.09;;;16.94;35.05
24302;BME280;12421;49.732;20.078;2023-04-28T16:23:39;96754.54;;;16.31;35.87
24302;BME280;12421;49.732;20.078;2023-04-28T16:33:42;96741.58;;;15.98;36.87
24302;BME280;12421;49.732;20.078;2023-04-28T16:43:45;96725.23;;;15.70;37.78
24302;BME280;12421;49.732;20.078;2023-04-28T16:53:48;96726.20;;;15.35;38.45
24302;BME280;12421;49.732;20.078;2023-04-28T17:03:51;96716.89;;;14.94;39.18
24302;BME280;12421;49.732;20.078;2023-04-28T17:13:55;96726.23;;;14.50;40.73
24302;BME280;12421;49.732;20.078;2023-04-28T17:24:00;96727.14;;;14.04;42.30
24302;BME280;12421;49.732;20.078;2023-04-28T17:34:03;96731.80;;;13.49;44.74
24302;BME280;12421;49.732;20.078;2023-04-28T17:44:06;96732.70;;;12.82;46.42
24302;BME280;12421;49.732;20.078;2023-04-28T17:54:11;96724.88;;;12.13;49.04
24302;BME280;12421;49.732;20.078;2023-04-28T18:04:14;96721.54;;;11.57;50.36
24302;BME280;12421;49.732;20.078;2023-04-28T18:14:17;96714.98;;;11.19;52.45
24302;BME280;12421;49.732;20.078;2023-04-28T18:24:20;96712.91;;;10.73;54.53
24302;BME280;12421;49.732;20.078;2023-04-28T18:34:23;96718.96;;;10.30;55.95
24302;BME280;12421;49.732;20.078;2023-04-28T18:44:27;96727.79;;;9.95;56.67
24302;BME280;12421;49.732;20.078;2023-04-28T18:54:30;96724.47;;;9.46;58.40
24302;BME280;12421;49.732;20.078;2023-04-28T19:04:34;96728.95;;;8.96;59.42
24302;BME280;12421;49.732;20.078;2023-04-28T19:14:41;96735.06;;;8.75;60.28
24302;BME280;12421;49.732;20.078;2023-04-28T19:24:44;96731.73;;;8.48;61.48
24302;BME280;12421;49.732;20.078;2023-04-28T19:34:47;96733.30;;;8.15;62.30
24302;BME280;12421;49.732;20.078;2023-04-28T19:44:54;96730.23;;;7.91;63.66
24302;BME280;12421;49.732;20.078;2023-04-28T19:54:57;96733.95;;;7.73;64.60
24302;BME280;12421;49.732;20.078;2023-04-28T20:05:02;96734.35;;;7.64;65.39
24302;BME280;12421;49.732;20.078;2023-04-28T20:15:06;96732.66;;;7.41;65.84
24302;BME280;12421;49.732;20.078;2023-04-28T20:25:10;96734.08;;;7.10;66.82
24302;BME280;12421;49.732;20.078;2023-04-28T20:35:14;96740.02;;;6.85;67.97
24302;BME280;12421;49.732;20.078;2023-04-28T20:45:18;96741.73;;;6.57;68.62
24302;BME280;12421;49.732;20.078;2023-04-28T20:55:22;96741.86;;;6.32;69.44
24302;BME280;12421;49.732;20.078;2023-04-28T21:05:25;96737.61;;;6.09;70.07
24302;BME280;12421;49.732;20.078;2023-04-28T21:15:34;96731.39;;;5.82;70.75
24302;BME280;12421;49.732;20.078;2023-04-28T21:25:38;96735.81;;;5.61;71.11
24302;BME280;12421;49.732;20.078;2023-04-28T21:35:41;96737.73;;;5.35;71.70
24302;BME280;12421;49.732;20.078;2023-04-28T21:45:45;96735.35;;;5.13;72.33
24302;BME280;12421;49.732;20.078;2023-04-28T21:55:49;96742.48;;;4.92;72.83
24302;BME280;12421;49.732;20.078;2023-04-28T22:05:52;96731.55;;;4.74;73.52
24302;BME280;12421;49.732;20.078;2023-04-28T22:15:55;96728.27;;;4.57;74.15
24302;BME280;12421;49.732;20.078;2023-04-28T22:25:58;96726.02;;;4.39;74.52
24302;BME280;12421;49.732;20.078;2023-04-28T22:36:01;96720.14;;;4.24;74.49
24302;BME280;12421;49.732;20.078;2023-04-28T22:46:04;96720.70;;;4.12;74.64
24302;BME280;12421;49.732;20.078;2023-04-28T22:56:08;96722.31;;;4.00;75.10
24302;BME280;12421;49.732;20.078;2023-04-28T23:06:11;96725.73;;;4.11;75.20
24302;BME280;12421;49.732;20.078;2023-04-28T23:16:15;96722.77;;;4.10;75.26
24302;BME280;12421;49.732;20.078;2023-04-28T23:26:18;96714.91;;;3.91;75.63
24302;BME280;12421;49.732;20.078;2023-04-28T23:36:22;96705.19;;;3.76;76.06
24302;BME280;12421;49.732;20.078;2023-04-28T23:46:26;96694.19;;;3.70;76.47
24302;BME280;12421;49.732;20.078;2023-04-28T23:56:30;96682.73;;;3.70;76.97
